Thunder radar more information blitzortung!


Radar de pluja more information rain snow radar


Visita la nostra xarxa de llocs de meteo:

Template documentation
and downloads

And another site



No particular awareness of the weather is required.    There are no Weather-warnings

Pagina Historial Weather Underground text

Diari Resum Agost 3, 2017 Unitats:  Tant    Imperial   Mètric
« Previous Dia
SegĂźent Dia »
Diari Setmana Mensual Anual Personalitzada
  Maxima: Minima: Media:
Temperatura: 100.9 °F /  38.3 °C 74.1 °F /  23.4 °C 88 °F /  31.1 °C
Punt de rosada: 69.8 °F /  21.0 °C 53.4 °F /  11.9 °C 61.3 °F /  16.3 °C
Humitat: 64 % 29 % 42 %
Wind Speed: 18.7 mph /  30.1 km/h - 3.9 mph /  6.3 km/h
RĂ fegues de vent: 18.7 mph /  30.1 km/h - -
Vent:- - SE
Pression baro: 30 in /  1015.8 hPa 29.8 in /  1010.7 hPa -
Precipitacions: 0 in /  0.0 mm    
Historical Graphs
 
 
Dades de taula per Agost 3, 2017
Temps Temperatura Punt de rosada Pression baro Vent Wind Speed RĂ fegues de vent Humitat Rainfall Rate (Hourly)
00:01 81.7 °F /  27.6 °C 60.1 °F /  15.6 °C 30 in /  1014.8 hPa SW 2.3 mph /  3.7 km/h 2.3 mph /  3.7 km/h 48 % 0 in /  0.0 mm
00:05 76.8 °F /  24.9 °C 59.9 °F /  15.5 °C 30 in /  1014.8 hPa Calm   2 mph /  3.2 km/h 56 % 0 in /  0.0 mm
00:15 76.3 °F /  24.6 °C 59.4 °F /  15.2 °C 30 in /  1014.8 hPa WSW 2 mph /  3.2 km/h 2 mph /  3.2 km/h 56 % 0 in /  0.0 mm
00:25 75.9 °F /  24.4 °C 59.5 °F /  15.3 °C 30 in /  1014.8 hPa Calm   3 mph /  4.8 km/h 57 % 0 in /  0.0 mm
00:35 75.9 °F /  24.4 °C 59.5 °F /  15.3 °C 30 in /  1014.8 hPa SW 1 mph /  1.6 km/h 3 mph /  4.8 km/h 57 % 0 in /  0.0 mm
00:45 75.7 °F /  24.3 °C 59.9 °F /  15.5 °C 30 in /  1014.8 hPa SW 1 mph /  1.6 km/h 2 mph /  3.2 km/h 58 % 0 in /  0.0 mm
00:55 75.6 °F /  24.2 °C 59.7 °F /  15.4 °C 30 in /  1014.8 hPa Calm   2 mph /  3.2 km/h 58 % 0 in /  0.0 mm
01:05 75.6 °F /  24.2 °C 59.7 °F /  15.4 °C 30 in /  1014.8 hPa West 2 mph /  3.2 km/h 3 mph /  4.8 km/h 58 % 0 in /  0.0 mm
01:15 76.1 °F /  24.5 °C 60.3 °F /  15.7 °C 30 in /  1014.8 hPa West 1 mph /  1.6 km/h 2 mph /  3.2 km/h 58 % 0 in /  0.0 mm
01:25 75.9 °F /  24.4 °C 60.6 °F /  15.9 °C 30 in /  1015.8 hPa West 1 mph /  1.6 km/h 2 mph /  3.2 km/h 59 % 0 in /  0.0 mm
01:35 75.7 °F /  24.3 °C 60.4 °F /  15.8 °C 30 in /  1015.8 hPa North 1 mph /  1.6 km/h 1 mph /  1.6 km/h 59 % 0 in /  0.0 mm
01:45 75.7 °F /  24.3 °C 60.4 °F /  15.8 °C 30 in /  1015.8 hPa Calm   1 mph /  1.6 km/h 59 % 0 in /  0.0 mm
01:55 75.2 °F /  24.0 °C 59.9 °F /  15.5 °C 30 in /  1014.8 hPa Calm     59 % 0 in /  0.0 mm
02:05 75.2 °F /  24.0 °C 60.4 °F /  15.8 °C 30 in /  1014.8 hPa Calm   1 mph /  1.6 km/h 60 % 0 in /  0.0 mm
02:15 74.5 °F /  23.6 °C 60.1 °F /  15.6 °C 30 in /  1014.8 hPa WNW 1 mph /  1.6 km/h 2 mph /  3.2 km/h 61 % 0 in /  0.0 mm
02:25 74.1 °F /  23.4 °C 59.7 °F /  15.4 °C 30 in /  1014.8 hPa WSW 1 mph /  1.6 km/h 2 mph /  3.2 km/h 61 % 0 in /  0.0 mm
02:35 74.7 °F /  23.7 °C 60.3 °F /  15.7 °C 30 in /  1014.8 hPa WSW 2 mph /  3.2 km/h 2 mph /  3.2 km/h 61 % 0 in /  0.0 mm
02:45 74.7 °F /  23.7 °C 60.3 °F /  15.7 °C 30 in /  1014.8 hPa WSW 2 mph /  3.2 km/h 3 mph /  4.8 km/h 61 % 0 in /  0.0 mm
02:55 75.2 °F /  24.0 °C 60.8 °F /  16.0 °C 29.9 in /  1013.8 hPa WSW 1 mph /  1.6 km/h 2 mph /  3.2 km/h 61 % 0 in /  0.0 mm
03:05 75.9 °F /  24.4 °C 61 °F /  16.1 °C 29.9 in /  1013.8 hPa WSW 2 mph /  3.2 km/h 3 mph /  4.8 km/h 60 % 0 in /  0.0 mm
03:15 76.8 °F /  24.9 °C 61.9 °F /  16.6 °C 29.9 in /  1013.8 hPa SW 1 mph /  1.6 km/h 2 mph /  3.2 km/h 60 % 0 in /  0.0 mm
03:25 77.4 °F /  25.2 °C 61.3 °F /  16.3 °C 29.9 in /  1013.8 hPa SW 2 mph /  3.2 km/h 3 mph /  4.8 km/h 58 % 0 in /  0.0 mm
03:35 77.9 °F /  25.5 °C 61.9 °F /  16.6 °C 29.9 in /  1013.8 hPa SW 1 mph /  1.6 km/h 2 mph /  3.2 km/h 58 % 0 in /  0.0 mm
03:45 79.5 °F /  26.4 °C 63.3 °F /  17.4 °C 29.9 in /  1013.8 hPa West 1 mph /  1.6 km/h 2 mph /  3.2 km/h 58 % 0 in /  0.0 mm
03:55 81 °F /  27.2 °C 63.3 °F /  17.4 °C 29.9 in /  1013.8 hPa NNE 3 mph /  4.8 km/h 4 mph /  6.4 km/h 55 % 0 in /  0.0 mm
04:05 81.3 °F /  27.4 °C 63.7 °F /  17.6 °C 29.9 in /  1013.8 hPa NNW 1 mph /  1.6 km/h 4 mph /  6.4 km/h 55 % 0 in /  0.0 mm
04:15 82.6 °F /  28.1 °C 64.2 °F /  17.9 °C 29.9 in /  1013.8 hPa NW 1 mph /  1.6 km/h 3 mph /  4.8 km/h 54 % 0 in /  0.0 mm
04:25 83.5 °F /  28.6 °C 64.6 °F /  18.1 °C 29.9 in /  1013.8 hPa NW 1 mph /  1.6 km/h 3 mph /  4.8 km/h 53 % 0 in /  0.0 mm
04:35 84 °F /  28.9 °C 64.9 °F /  18.3 °C 29.9 in /  1013.8 hPa WNW 2 mph /  3.2 km/h 2 mph /  3.2 km/h 53 % 0 in /  0.0 mm
04:45 85.3 °F /  29.6 °C 64.6 °F /  18.1 °C 29.9 in /  1013.8 hPa WNW 1 mph /  1.6 km/h 4 mph /  6.4 km/h 50 % 0 in /  0.0 mm
04:55 86.4 °F /  30.2 °C 64.9 °F /  18.3 °C 29.9 in /  1013.8 hPa West 1 mph /  1.6 km/h 2 mph /  3.2 km/h 49 % 0 in /  0.0 mm
05:05 87.1 °F /  30.6 °C 65.7 °F /  18.7 °C 29.9 in /  1013.8 hPa NNE 1 mph /  1.6 km/h 4 mph /  6.4 km/h 49 % 0 in /  0.0 mm
05:15 88 °F /  31.1 °C 65.1 °F /  18.4 °C 29.9 in /  1013.8 hPa NNE 1 mph /  1.6 km/h 3 mph /  4.8 km/h 47 % 0 in /  0.0 mm
05:25 88.7 °F /  31.5 °C 65.8 °F /  18.8 °C 29.9 in /  1013.8 hPa NNE 2 mph /  3.2 km/h 5 mph /  8.0 km/h 47 % 0 in /  0.0 mm
05:35 90.5 °F /  32.5 °C 66.4 °F /  19.1 °C 29.9 in /  1013.8 hPa NNE 1 mph /  1.6 km/h 2 mph /  3.2 km/h 45 % 0 in /  0.0 mm
05:45 91.4 °F /  33.0 °C 65.8 °F /  18.8 °C 29.9 in /  1013.8 hPa NNE 3 mph /  4.8 km/h 3 mph /  4.8 km/h 43 % 0 in /  0.0 mm
10:54 92.3 °F /  33.5 °C 65.8 °F /  18.8 °C 29.9 in /  1013.8 hPa WSW 3.5 mph /  5.6 km/h   42 % 0 in /  0.0 mm
10:59 93.4 °F /  34.1 °C 66.9 °F /  19.4 °C 29.9 in /  1013.8 hPa North 2.3 mph /  3.7 km/h 2.3 mph /  3.7 km/h 42 % 0 in /  0.0 mm
11:04 93 °F /  33.9 °C 65.8 °F /  18.8 °C 29.9 in /  1013.8 hPa North 3.5 mph /  5.6 km/h 3.5 mph /  5.6 km/h 41 % 0 in /  0.0 mm
11:09 93.2 °F /  34.0 °C 66 °F /  18.9 °C 29.9 in /  1013.8 hPa NE 2.4 mph /  3.9 km/h 2.4 mph /  3.9 km/h 41 % 0 in /  0.0 mm
11:14 93.2 °F /  34.0 °C 66 °F /  18.9 °C 29.9 in /  1013.8 hPa ENE 1.2 mph /  1.9 km/h 1.2 mph /  1.9 km/h 41 % 0 in /  0.0 mm
11:19 94.3 °F /  34.6 °C 66.9 °F /  19.4 °C 29.9 in /  1013.8 hPa North 2.3 mph /  3.7 km/h 2.3 mph /  3.7 km/h 41 % 0 in /  0.0 mm
11:24 95.2 °F /  35.1 °C 66.4 °F /  19.1 °C 29.9 in /  1013.8 hPa NNW 1.4 mph /  2.3 km/h   39 % 0 in /  0.0 mm
11:29 95.4 °F /  35.2 °C 66.6 °F /  19.2 °C 29.9 in /  1013.8 hPa NW 1.4 mph /  2.3 km/h 1.4 mph /  2.3 km/h 39 % 0 in /  0.0 mm
11:34 95.4 °F /  35.2 °C 65.7 °F /  18.7 °C 29.9 in /  1013.8 hPa ENE 2.3 mph /  3.7 km/h 2.3 mph /  3.7 km/h 38 % 0 in /  0.0 mm
11:39 96.4 °F /  35.8 °C 65.8 °F /  18.8 °C 29.9 in /  1013.8 hPa ESE 2.3 mph /  3.7 km/h 2.3 mph /  3.7 km/h 37 % 0 in /  0.0 mm
11:44 96.6 °F /  35.9 °C 65.3 °F /  18.5 °C 29.9 in /  1013.8 hPa ESE 2.3 mph /  3.7 km/h 2.3 mph /  3.7 km/h 36 % 0 in /  0.0 mm
11:49 97.2 °F /  36.2 °C 66.6 °F /  19.2 °C 29.9 in /  1013.8 hPa SW 2.3 mph /  3.7 km/h 2.3 mph /  3.7 km/h 37 % 0 in /  0.0 mm
11:54 96.8 °F /  36.0 °C 64.6 °F /  18.1 °C 29.9 in /  1013.8 hPa ESE 3.5 mph /  5.6 km/h 3.5 mph /  5.6 km/h 35 % 0 in /  0.0 mm
11:59 97.2 °F /  36.2 °C 65.8 °F /  18.8 °C 29.9 in /  1013.8 hPa South 4.6 mph /  7.4 km/h 4.6 mph /  7.4 km/h 36 % 0 in /  0.0 mm
12:04 98.6 °F /  37.0 °C 65.5 °F /  18.6 °C 29.9 in /  1013.8 hPa South 1.2 mph /  1.9 km/h 1.2 mph /  1.9 km/h 34 % 0 in /  0.0 mm
12:09 98.4 °F /  36.9 °C 65.1 °F /  18.4 °C 29.9 in /  1013.8 hPa SW 3.5 mph /  5.6 km/h 3.5 mph /  5.6 km/h 34 % 0 in /  0.0 mm
12:14 97.5 °F /  36.4 °C 62.8 °F /  17.1 °C 29.9 in /  1013.8 hPa ESE 5.8 mph /  9.3 km/h 5.8 mph /  9.3 km/h 32 % 0 in /  0.0 mm
12:19 98.1 °F /  36.7 °C 63.1 °F /  17.3 °C 29.9 in /  1012.8 hPa ENE 3.5 mph /  5.6 km/h 3.5 mph /  5.6 km/h 32 % 0 in /  0.0 mm
12:24 98.2 °F /  36.8 °C 61.5 °F /  16.4 °C 29.9 in /  1012.8 hPa ESE 5.8 mph /  9.3 km/h 5.8 mph /  9.3 km/h 30 % 0 in /  0.0 mm
12:29 98.2 °F /  36.8 °C 61.5 °F /  16.4 °C 29.9 in /  1012.8 hPa East 4.6 mph /  7.4 km/h 4.6 mph /  7.4 km/h 30 % 0 in /  0.0 mm
12:34 99.3 °F /  37.4 °C 62.4 °F /  16.9 °C 29.9 in /  1013.8 hPa WSW 3.5 mph /  5.6 km/h 3.5 mph /  5.6 km/h 30 % 0 in /  0.0 mm
12:39 99.5 °F /  37.5 °C 61.5 °F /  16.4 °C 29.9 in /  1013.8 hPa ENE 2.9 mph /  4.7 km/h 2.9 mph /  4.7 km/h 29 % 0 in /  0.0 mm
12:44 99.5 °F /  37.5 °C 61.5 °F /  16.4 °C 29.9 in /  1013.8 hPa East 4.6 mph /  7.4 km/h 4.6 mph /  7.4 km/h 29 % 0 in /  0.0 mm
12:49 100.9 °F /  38.3 °C 62.8 °F /  17.1 °C 29.9 in /  1013.8 hPa SSE 2.3 mph /  3.7 km/h 2.3 mph /  3.7 km/h 29 % 0 in /  0.0 mm
12:54 100 °F /  37.8 °C 63 °F /  17.2 °C 29.9 in /  1013.8 hPa East 9.2 mph /  14.8 km/h 9.2 mph /  14.8 km/h 30 % 0 in /  0.0 mm
12:59 98.2 °F /  36.8 °C 65.8 °F /  18.8 °C 29.9 in /  1013.8 hPa East 9.2 mph /  14.8 km/h 9.2 mph /  14.8 km/h 35 % 0 in /  0.0 mm
13:04 96.4 °F /  35.8 °C 65.1 °F /  18.4 °C 29.9 in /  1013.8 hPa ENE 10.4 mph /  16.7 km/h 10.4 mph /  16.7 km/h 36 % 0 in /  0.0 mm
13:09 95.4 °F /  35.2 °C 65.7 °F /  18.7 °C 29.9 in /  1013.8 hPa East 6.9 mph /  11.1 km/h 6.9 mph /  11.1 km/h 38 % 0 in /  0.0 mm
13:14 95 °F /  35.0 °C 66.9 °F /  19.4 °C 29.9 in /  1013.8 hPa ESE 8.1 mph /  13.0 km/h 8.1 mph /  13.0 km/h 40 % 0 in /  0.0 mm
13:19 94.5 °F /  34.7 °C 67.8 °F /  19.9 °C 29.9 in /  1012.8 hPa ESE 8.1 mph /  13.0 km/h 8.1 mph /  13.0 km/h 42 % 0 in /  0.0 mm
13:24 94.8 °F /  34.9 °C 68.2 °F /  20.1 °C 29.9 in /  1012.8 hPa ESE 11.5 mph /  18.5 km/h 11.5 mph /  18.5 km/h 42 % 0 in /  0.0 mm
13:29 93.7 °F /  34.3 °C 67.8 °F /  19.9 °C 29.9 in /  1012.8 hPa East 10.4 mph /  16.7 km/h 10.4 mph /  16.7 km/h 43 % 0 in /  0.0 mm
13:34 93.4 °F /  34.1 °C 68.9 °F /  20.5 °C 29.9 in /  1013.8 hPa ENE 18.7 mph /  30.1 km/h 18.7 mph /  30.1 km/h 45 % 0 in /  0.0 mm
13:39 92.7 °F /  33.7 °C 68.9 °F /  20.5 °C 29.9 in /  1013.8 hPa SE 15.2 mph /  24.5 km/h 15.2 mph /  24.5 km/h 46 % 0 in /  0.0 mm
13:44 92.1 °F /  33.4 °C 68.4 °F /  20.2 °C 29.9 in /  1013.8 hPa ESE 12.7 mph /  20.4 km/h 12.7 mph /  20.4 km/h 46 % 0 in /  0.0 mm
13:49 92.3 °F /  33.5 °C 69.3 °F /  20.7 °C 29.9 in /  1013.8 hPa ENE 8.1 mph /  13.0 km/h 8.1 mph /  13.0 km/h 47 % 0 in /  0.0 mm
13:54 91.8 °F /  33.2 °C 69.3 °F /  20.7 °C 29.9 in /  1013.8 hPa East 9.2 mph /  14.8 km/h 9.2 mph /  14.8 km/h 48 % 0 in /  0.0 mm
13:59 91.2 °F /  32.9 °C 69.4 °F /  20.8 °C 29.9 in /  1013.8 hPa East 8.1 mph /  13.0 km/h 8.1 mph /  13.0 km/h 49 % 0 in /  0.0 mm
14:04 91 °F /  32.8 °C 69.8 °F /  21.0 °C 29.9 in /  1013.8 hPa ESE 9.2 mph /  14.8 km/h 9.2 mph /  14.8 km/h 50 % 0 in /  0.0 mm
14:09 91.4 °F /  33.0 °C 69.6 °F /  20.9 °C 29.9 in /  1013.8 hPa NE 13.8 mph /  22.2 km/h 13.8 mph /  22.2 km/h 49 % 0 in /  0.0 mm
14:14 89.8 °F /  32.1 °C 68.7 °F /  20.4 °C 29.9 in /  1013.8 hPa ESE 11.5 mph /  18.5 km/h 11.5 mph /  18.5 km/h 50 % 0 in /  0.0 mm
14:19 89.1 °F /  31.7 °C 68.5 °F /  20.3 °C 29.9 in /  1013.8 hPa ESE 16.1 mph /  25.9 km/h 16.1 mph /  25.9 km/h 51 % 0 in /  0.0 mm
14:24 89.4 °F /  31.9 °C 68.9 °F /  20.5 °C 29.9 in /  1013.8 hPa NE 13.8 mph /  22.2 km/h 13.8 mph /  22.2 km/h 51 % 0 in /  0.0 mm
14:25 89.1 °F /  31.7 °C 68.5 °F /  20.3 °C 29.9 in /  1013.8 hPa NNE 15 mph /  24.1 km/h 15 mph /  24.1 km/h 51 % 0 in /  0.0 mm
14:30 88.7 °F /  31.5 °C 68.7 °F /  20.4 °C 29.9 in /  1013.8 hPa ENE 9.2 mph /  14.8 km/h 9.2 mph /  14.8 km/h 52 % 0 in /  0.0 mm
14:35 88.2 °F /  31.2 °C 68.4 °F /  20.2 °C 29.9 in /  1013.8 hPa ENE 10.4 mph /  16.7 km/h 10.4 mph /  16.7 km/h 52 % 0 in /  0.0 mm
14:40 87.6 °F /  30.9 °C 68.9 °F /  20.5 °C 29.9 in /  1013.8 hPa ESE 10.7 mph /  17.2 km/h 10.7 mph /  17.2 km/h 54 % 0 in /  0.0 mm
14:45 88.3 °F /  31.3 °C 69.6 °F /  20.9 °C 29.9 in /  1013.8 hPa SSE 8.1 mph /  13.0 km/h 8.1 mph /  13.0 km/h 54 % 0 in /  0.0 mm
14:50 87.8 °F /  31.0 °C 69.1 °F /  20.6 °C 29.9 in /  1012.8 hPa ENE 6.9 mph /  11.1 km/h 6.9 mph /  11.1 km/h 54 % 0 in /  0.0 mm
14:55 87.8 °F /  31.0 °C 69.1 °F /  20.6 °C 29.9 in /  1012.8 hPa North 9.2 mph /  14.8 km/h 9.2 mph /  14.8 km/h 54 % 0 in /  0.0 mm
15:00 87.4 °F /  30.8 °C 69.3 °F /  20.7 °C 29.9 in /  1012.8 hPa ENE 10.4 mph /  16.7 km/h 10.4 mph /  16.7 km/h 55 % 0 in /  0.0 mm
15:05 87.1 °F /  30.6 °C 69.1 °F /  20.6 °C 29.9 in /  1013.8 hPa NE 8.1 mph /  13.0 km/h 8.1 mph /  13.0 km/h 55 % 0 in /  0.0 mm
15:10 87.1 °F /  30.6 °C 69.1 °F /  20.6 °C 29.9 in /  1013.8 hPa ENE 8.1 mph /  13.0 km/h 8.1 mph /  13.0 km/h 55 % 0 in /  0.0 mm
15:15 86.9 °F /  30.5 °C 68.4 °F /  20.2 °C 29.9 in /  1013.8 hPa NE 8.1 mph /  13.0 km/h 8.1 mph /  13.0 km/h 54 % 0 in /  0.0 mm
15:20 87.6 °F /  30.9 °C 68.9 °F /  20.5 °C 29.9 in /  1013.8 hPa East 5.8 mph /  9.3 km/h 6.7 mph /  10.8 km/h 54 % 0 in /  0.0 mm
15:25 87.1 °F /  30.6 °C 67.3 °F /  19.6 °C 29.9 in /  1013.8 hPa ESE 9.2 mph /  14.8 km/h 9.2 mph /  14.8 km/h 52 % 0 in /  0.0 mm
15:30 87.6 °F /  30.9 °C 66 °F /  18.9 °C 29.9 in /  1013.8 hPa SE 12.7 mph /  20.4 km/h 12.7 mph /  20.4 km/h 49 % 0 in /  0.0 mm
15:35 88 °F /  31.1 °C 65.1 °F /  18.4 °C 29.9 in /  1013.8 hPa ENE 12.7 mph /  20.4 km/h 12.7 mph /  20.4 km/h 47 % 0 in /  0.0 mm
15:36 88 °F /  31.1 °C 64.6 °F /  18.1 °C 29.9 in /  1013.8 hPa East 12.7 mph /  20.4 km/h 12.7 mph /  20.4 km/h 46 % 0 in /  0.0 mm
15:41 88.9 °F /  31.6 °C 64.8 °F /  18.2 °C 29.9 in /  1013.8 hPa East 5.9 mph /  9.5 km/h 5.9 mph /  9.5 km/h 45 % 0 in /  0.0 mm
15:46 89.6 °F /  32.0 °C 64.8 °F /  18.2 °C 29.9 in /  1013.8 hPa ESE 5.8 mph /  9.3 km/h 5.8 mph /  9.3 km/h 44 % 0 in /  0.0 mm
15:51 89.8 °F /  32.1 °C 64.9 °F /  18.3 °C 29.9 in /  1013.8 hPa ENE 8.1 mph /  13.0 km/h 8.1 mph /  13.0 km/h 44 % 0 in /  0.0 mm
15:56 90 °F /  32.2 °C 64.6 °F /  18.1 °C 29.9 in /  1013.8 hPa ENE 11.2 mph /  18.0 km/h 11.2 mph /  18.0 km/h 43 % 0 in /  0.0 mm
16:01 90.7 °F /  32.6 °C 65.1 °F /  18.4 °C 29.9 in /  1013.8 hPa East 8.1 mph /  13.0 km/h 8.1 mph /  13.0 km/h 43 % 0 in /  0.0 mm
16:06 90.5 °F /  32.5 °C 64.9 °F /  18.3 °C 29.9 in /  1013.8 hPa South 10.4 mph /  16.7 km/h 10.4 mph /  16.7 km/h 43 % 0 in /  0.0 mm
16:11 90 °F /  32.2 °C 64.6 °F /  18.1 °C 29.9 in /  1013.8 hPa SE 9.2 mph /  14.8 km/h 9.2 mph /  14.8 km/h 43 % 0 in /  0.0 mm
16:16 90.7 °F /  32.6 °C 64.4 °F /  18.0 °C 29.9 in /  1013.8 hPa ESE 10.9 mph /  17.5 km/h 10.9 mph /  17.5 km/h 42 % 0 in /  0.0 mm
16:21 90.9 °F /  32.7 °C 64.6 °F /  18.1 °C 29.9 in /  1013.8 hPa ENE 8.1 mph /  13.0 km/h 8.1 mph /  13.0 km/h 42 % 0 in /  0.0 mm
16:26 91.4 °F /  33.0 °C 63.7 °F /  17.6 °C 29.9 in /  1013.8 hPa East 6.9 mph /  11.1 km/h 6.9 mph /  11.1 km/h 40 % 0 in /  0.0 mm
16:31 91.6 °F /  33.1 °C 63.9 °F /  17.7 °C 29.9 in /  1013.8 hPa ENE 8.1 mph /  13.0 km/h 8.1 mph /  13.0 km/h 40 % 0 in /  0.0 mm
16:36 92.1 °F /  33.4 °C 63 °F /  17.2 °C 29.9 in /  1013.8 hPa ESE 8.5 mph /  13.7 km/h 8.5 mph /  13.7 km/h 38 % 0 in /  0.0 mm
16:41 91.8 °F /  33.2 °C 63.3 °F /  17.4 °C 29.9 in /  1013.8 hPa East 6.9 mph /  11.1 km/h 6.9 mph /  11.1 km/h 39 % 0 in /  0.0 mm
16:46 91.9 °F /  33.3 °C 62.8 °F /  17.1 °C 29.9 in /  1013.8 hPa ESE 8.5 mph /  13.7 km/h 8.5 mph /  13.7 km/h 38 % 0 in /  0.0 mm
16:51 92.5 °F /  33.6 °C 63.1 °F /  17.3 °C 29.9 in /  1013.8 hPa ESE 9.8 mph /  15.8 km/h 9.8 mph /  15.8 km/h 38 % 0 in /  0.0 mm
16:56 92.7 °F /  33.7 °C 63.3 °F /  17.4 °C 29.9 in /  1013.8 hPa ESE 9.2 mph /  14.8 km/h 9.2 mph /  14.8 km/h 38 % 0 in /  0.0 mm
17:01 92.7 °F /  33.7 °C 64 °F /  17.8 °C 29.9 in /  1012.8 hPa East 8.1 mph /  13.0 km/h 8.1 mph /  13.0 km/h 39 % 0 in /  0.0 mm
17:06 92.7 °F /  33.7 °C 62.6 °F /  17.0 °C 29.9 in /  1012.8 hPa ESE 10.7 mph /  17.2 km/h 10.7 mph /  17.2 km/h 37 % 0 in /  0.0 mm
17:11 93.2 °F /  34.0 °C 63.9 °F /  17.7 °C 29.9 in /  1012.8 hPa ESE 5.8 mph /  9.3 km/h 5.8 mph /  9.3 km/h 38 % 0 in /  0.0 mm
17:16 93 °F /  33.9 °C 63.7 °F /  17.6 °C 29.9 in /  1011.7 hPa NNE 8.1 mph /  13.0 km/h 8.1 mph /  13.0 km/h 38 % 0 in /  0.0 mm
17:21 92.8 °F /  33.8 °C 63.5 °F /  17.5 °C 29.9 in /  1011.7 hPa East 8.1 mph /  13.0 km/h 8.1 mph /  13.0 km/h 38 % 0 in /  0.0 mm
17:26 93.4 °F /  34.1 °C 64 °F /  17.8 °C 29.9 in /  1011.7 hPa ESE 6.9 mph /  11.1 km/h 6.9 mph /  11.1 km/h 38 % 0 in /  0.0 mm
17:31 93.6 °F /  34.2 °C 64 °F /  17.8 °C 29.9 in /  1012.8 hPa ESE 5.8 mph /  9.3 km/h 5.8 mph /  9.3 km/h 38 % 0 in /  0.0 mm
17:36 93.4 °F /  34.1 °C 64 °F /  17.8 °C 29.9 in /  1012.8 hPa ENE 6.9 mph /  11.1 km/h 6.9 mph /  11.1 km/h 38 % 0 in /  0.0 mm
17:41 93.6 °F /  34.2 °C 64 °F /  17.8 °C 29.9 in /  1012.8 hPa ENE 8.1 mph /  13.0 km/h 8.1 mph /  13.0 km/h 38 % 0 in /  0.0 mm
17:46 93.7 °F /  34.3 °C 63.5 °F /  17.5 °C 29.9 in /  1012.8 hPa East 3.6 mph /  5.8 km/h 3.6 mph /  5.8 km/h 37 % 0 in /  0.0 mm
17:51 93.7 °F /  34.3 °C 63.5 °F /  17.5 °C 29.9 in /  1012.8 hPa NE 5.6 mph /  9.0 km/h 5.6 mph /  9.0 km/h 37 % 0 in /  0.0 mm
17:56 93.6 °F /  34.2 °C 63.3 °F /  17.4 °C 29.9 in /  1012.8 hPa ENE 8.7 mph /  14.0 km/h 8.7 mph /  14.0 km/h 37 % 0 in /  0.0 mm
18:01 93.6 °F /  34.2 °C 62.6 °F /  17.0 °C 29.9 in /  1012.8 hPa East 8.1 mph /  13.0 km/h 8.1 mph /  13.0 km/h 36 % 0 in /  0.0 mm
18:06 93.6 °F /  34.2 °C 61.9 °F /  16.6 °C 29.9 in /  1012.8 hPa ESE 9.7 mph /  15.6 km/h 9.7 mph /  15.6 km/h 35 % 0 in /  0.0 mm
18:11 93.6 °F /  34.2 °C 62.6 °F /  17.0 °C 29.9 in /  1012.8 hPa ENE 5.8 mph /  9.3 km/h 5.8 mph /  9.3 km/h 36 % 0 in /  0.0 mm
18:16 93.9 °F /  34.4 °C 62.1 °F /  16.7 °C 29.9 in /  1012.8 hPa ENE 5.8 mph /  9.3 km/h 5.8 mph /  9.3 km/h 35 % 0 in /  0.0 mm
18:21 94.3 °F /  34.6 °C 63.1 °F /  17.3 °C 29.9 in /  1012.8 hPa ESE 7.6 mph /  12.2 km/h 7.6 mph /  12.2 km/h 36 % 0 in /  0.0 mm
18:26 94.3 °F /  34.6 °C 61.5 °F /  16.4 °C 29.9 in /  1012.8 hPa NE 5.8 mph /  9.3 km/h 5.8 mph /  9.3 km/h 34 % 0 in /  0.0 mm
18:31 94.5 °F /  34.7 °C 62.6 °F /  17.0 °C 29.9 in /  1011.7 hPa NW 2.4 mph /  3.9 km/h 2.4 mph /  3.9 km/h 35 % 0 in /  0.0 mm
18:36 94.8 °F /  34.9 °C 63 °F /  17.2 °C 29.9 in /  1011.7 hPa East 2.6 mph /  4.2 km/h   35 % 0 in /  0.0 mm
18:41 94.5 °F /  34.7 °C 62.6 °F /  17.0 °C 29.9 in /  1011.7 hPa West 3.5 mph /  5.6 km/h 3.5 mph /  5.6 km/h 35 % 0 in /  0.0 mm
18:46 95.7 °F /  35.4 °C 62.1 °F /  16.7 °C 29.9 in /  1011.7 hPa South 4.6 mph /  7.4 km/h 4.6 mph /  7.4 km/h 33 % 0 in /  0.0 mm
18:51 96.1 °F /  35.6 °C 60.6 °F /  15.9 °C 29.9 in /  1011.7 hPa South 4.6 mph /  7.4 km/h 4.6 mph /  7.4 km/h 31 % 0 in /  0.0 mm
18:56 96.6 °F /  35.9 °C 61 °F /  16.1 °C 29.9 in /  1011.7 hPa West 2.3 mph /  3.7 km/h 2.3 mph /  3.7 km/h 31 % 0 in /  0.0 mm
19:01 97.2 °F /  36.2 °C 60.6 °F /  15.9 °C 29.9 in /  1011.7 hPa SW 1.2 mph /  1.9 km/h 1.2 mph /  1.9 km/h 30 % 0 in /  0.0 mm
19:06 96.4 °F /  35.8 °C 59.9 °F /  15.5 °C 29.9 in /  1011.7 hPa SE 3.5 mph /  5.6 km/h 3.5 mph /  5.6 km/h 30 % 0 in /  0.0 mm
19:11 95.7 °F /  35.4 °C 59.4 °F /  15.2 °C 29.9 in /  1011.7 hPa East 1.6 mph /  2.6 km/h   30 % 0 in /  0.0 mm
19:21 94.3 °F /  34.6 °C 59.9 °F /  15.5 °C 29.8 in /  1010.7 hPa ESE 4.6 mph /  7.4 km/h 4.6 mph /  7.4 km/h 32 % 0 in /  0.0 mm
19:25 83.1 °F /  28.4 °C 54.1 °F /  12.3 °C 29.9 in /  1012.8 hPa NNE 1 mph /  1.6 km/h 1 mph /  1.6 km/h 37 % 0 in /  0.0 mm
19:26 93.9 °F /  34.4 °C 59.5 °F /  15.3 °C 29.8 in /  1010.7 hPa ENE 6.9 mph /  11.1 km/h 6.9 mph /  11.1 km/h 32 % 0 in /  0.0 mm
19:31 93.9 °F /  34.4 °C 58.6 °F /  14.8 °C 29.9 in /  1011.7 hPa South 3.5 mph /  5.6 km/h 3.6 mph /  5.8 km/h 31 % 0 in /  0.0 mm
19:35 82.4 °F /  28.0 °C 53.4 °F /  11.9 °C 29.9 in /  1012.8 hPa NE 1 mph /  1.6 km/h 2 mph /  3.2 km/h 37 % 0 in /  0.0 mm
19:36 94.1 °F /  34.5 °C 59.7 °F /  15.4 °C 29.9 in /  1011.7 hPa ESE 2.4 mph /  3.9 km/h 2.4 mph /  3.9 km/h 32 % 0 in /  0.0 mm
19:41 93.7 °F /  34.3 °C 59.4 °F /  15.2 °C 29.9 in /  1011.7 hPa ESE 4.6 mph /  7.4 km/h 4.6 mph /  7.4 km/h 32 % 0 in /  0.0 mm
19:45 81.9 °F /  27.7 °C 53.8 °F /  12.1 °C 29.9 in /  1012.8 hPa Calm   2 mph /  3.2 km/h 38 % 0 in /  0.0 mm
19:46 93.4 °F /  34.1 °C 58.3 °F /  14.6 °C 29.9 in /  1011.7 hPa ESE 8.1 mph /  13.0 km/h 8.1 mph /  13.0 km/h 31 % 0 in /  0.0 mm
19:51 93.2 °F /  34.0 °C 59 °F /  15.0 °C 29.9 in /  1011.7 hPa ESE 7.6 mph /  12.2 km/h 7.6 mph /  12.2 km/h 32 % 0 in /  0.0 mm
19:55 81.3 °F /  27.4 °C 54 °F /  12.2 °C 29.9 in /  1012.8 hPa ENE 1 mph /  1.6 km/h 3 mph /  4.8 km/h 39 % 0 in /  0.0 mm
19:56 93 °F /  33.9 °C 59.7 °F /  15.4 °C 29.9 in /  1011.7 hPa ENE 3.5 mph /  5.6 km/h 3.5 mph /  5.6 km/h 33 % 0 in /  0.0 mm
20:01 92.8 °F /  33.8 °C 59.5 °F /  15.3 °C 29.9 in /  1011.7 hPa ESE 4.6 mph /  7.4 km/h 4.6 mph /  7.4 km/h 33 % 0 in /  0.0 mm
20:05 80.6 °F /  27.0 °C 53.4 °F /  11.9 °C 29.9 in /  1013.8 hPa Calm   2 mph /  3.2 km/h 39 % 0 in /  0.0 mm
20:06 93 °F /  33.9 °C 59.7 °F /  15.4 °C 29.9 in /  1011.7 hPa East 4.6 mph /  7.4 km/h 4.6 mph /  7.4 km/h 33 % 0 in /  0.0 mm
20:11 92.7 °F /  33.7 °C 59.4 °F /  15.2 °C 29.9 in /  1011.7 hPa East 3.5 mph /  5.6 km/h 3.5 mph /  5.6 km/h 33 % 0 in /  0.0 mm
20:15 80.6 °F /  27.0 °C 54 °F /  12.2 °C 29.9 in /  1013.8 hPa NE 1 mph /  1.6 km/h 2 mph /  3.2 km/h 40 % 0 in /  0.0 mm
20:16 92.5 °F /  33.6 °C 59.2 °F /  15.1 °C 29.9 in /  1011.7 hPa East 2.3 mph /  3.7 km/h 2.3 mph /  3.7 km/h 33 % 0 in /  0.0 mm
20:21 92.5 °F /  33.6 °C 59.2 °F /  15.1 °C 29.9 in /  1011.7 hPa ESE 2.3 mph /  3.7 km/h 2.3 mph /  3.7 km/h 33 % 0 in /  0.0 mm
20:25 80.2 °F /  26.8 °C 54.3 °F /  12.4 °C 29.9 in /  1012.8 hPa NNE 2 mph /  3.2 km/h 2 mph /  3.2 km/h 41 % 0 in /  0.0 mm
20:26 92.7 °F /  33.7 °C 58.5 °F /  14.7 °C 29.9 in /  1011.7 hPa Calm     32 % 0 in /  0.0 mm
20:32 92.7 °F /  33.7 °C 58.5 °F /  14.7 °C 29.9 in /  1011.7 hPa Calm     32 % 0 in /  0.0 mm
20:35 80.1 °F /  26.7 °C 54.9 °F /  12.7 °C 29.9 in /  1013.8 hPa NE 1 mph /  1.6 km/h 2 mph /  3.2 km/h 42 % 0 in /  0.0 mm
20:37 92.3 °F /  33.5 °C 58.3 °F /  14.6 °C 29.9 in /  1011.7 hPa WNW 1.2 mph /  1.9 km/h   32 % 0 in /  0.0 mm
20:42 92.3 °F /  33.5 °C 57.4 °F /  14.1 °C 29.9 in /  1011.7 hPa WSW 2.3 mph /  3.7 km/h 2.3 mph /  3.7 km/h 31 % 0 in /  0.0 mm
20:45 79.7 °F /  26.5 °C 54.7 °F /  12.6 °C 29.9 in /  1013.8 hPa ENE 1 mph /  1.6 km/h 3 mph /  4.8 km/h 42 % 0 in /  0.0 mm
20:47 92.3 °F /  33.5 °C 56.5 °F /  13.6 °C 29.9 in /  1011.7 hPa Calm     30 % 0 in /  0.0 mm
20:52 92.1 °F /  33.4 °C 56.1 °F /  13.4 °C 29.9 in /  1011.7 hPa Calm     30 % 0 in /  0.0 mm
20:55 79.2 °F /  26.2 °C 54.7 °F /  12.6 °C 29.9 in /  1013.8 hPa Calm   2 mph /  3.2 km/h 43 % 0 in /  0.0 mm
20:57 91.8 °F /  33.2 °C 55.9 °F /  13.3 °C 29.9 in /  1011.7 hPa SW 1.4 mph /  2.3 km/h 1.4 mph /  2.3 km/h 30 % 0 in /  0.0 mm
21:02 91.6 °F /  33.1 °C 54.9 °F /  12.7 °C 29.9 in /  1011.7 hPa Calm     29 % 0 in /  0.0 mm
21:05 78.8 °F /  26.0 °C 55 °F /  12.8 °C 29.9 in /  1013.8 hPa ENE 2 mph /  3.2 km/h 2 mph /  3.2 km/h 44 % 0 in /  0.0 mm
21:07 91.4 °F /  33.0 °C 54.7 °F /  12.6 °C 29.9 in /  1011.7 hPa Calm     29 % 0 in /  0.0 mm
21:12 91 °F /  32.8 °C 56.1 °F /  13.4 °C 29.9 in /  1011.7 hPa WNW 2 mph /  3.2 km/h   31 % 0 in /  0.0 mm
21:15 78.4 °F /  25.8 °C 54.7 °F /  12.6 °C 29.9 in /  1013.8 hPa Calm     44 % 0 in /  0.0 mm
21:17 90.9 °F /  32.7 °C 55 °F /  12.8 °C 29.9 in /  1011.7 hPa Calm     30 % 0 in /  0.0 mm
21:22 90.7 °F /  32.6 °C 55 °F /  12.8 °C 29.9 in /  1011.7 hPa Calm     30 % 0 in /  0.0 mm
21:25 78.1 °F /  25.6 °C 56.8 °F /  13.8 °C 29.9 in /  1013.8 hPa NE 1 mph /  1.6 km/h 2 mph /  3.2 km/h 48 % 0 in /  0.0 mm
21:27 90.3 °F /  32.4 °C 54.7 °F /  12.6 °C 29.9 in /  1011.7 hPa Calm     30 % 0 in /  0.0 mm
21:32 90 °F /  32.2 °C 54.3 °F /  12.4 °C 29.9 in /  1011.7 hPa North 1.2 mph /  1.9 km/h 1.2 mph /  1.9 km/h 30 % 0 in /  0.0 mm
21:35 77.7 °F /  25.4 °C 58.1 °F /  14.5 °C 29.9 in /  1012.8 hPa NE 1 mph /  1.6 km/h 2 mph /  3.2 km/h 51 % 0 in /  0.0 mm
21:37 89.8 °F /  32.1 °C 55 °F /  12.8 °C 29.9 in /  1011.7 hPa NNW 1.2 mph /  1.9 km/h 1.2 mph /  1.9 km/h 31 % 0 in /  0.0 mm
21:42 89.6 °F /  32.0 °C 54.1 °F /  12.3 °C 29.9 in /  1011.7 hPa Calm     30 % 0 in /  0.0 mm
21:45 77.4 °F /  25.2 °C 58.8 °F /  14.9 °C 29.9 in /  1012.8 hPa NE 1 mph /  1.6 km/h 2 mph /  3.2 km/h 53 % 0 in /  0.0 mm
21:47 89.4 °F /  31.9 °C 54 °F /  12.2 °C 29.9 in /  1012.8 hPa Calm     30 % 0 in /  0.0 mm
21:52 89.2 °F /  31.8 °C 53.8 °F /  12.1 °C 29.9 in /  1012.8 hPa Calm     30 % 0 in /  0.0 mm
21:55 77 °F /  25.0 °C 59.2 °F /  15.1 °C 29.9 in /  1012.8 hPa ENE 2 mph /  3.2 km/h 2 mph /  3.2 km/h 54 % 0 in /  0.0 mm
21:57 89.2 °F /  31.8 °C 54.7 °F /  12.6 °C 29.9 in /  1012.8 hPa NNW 1.2 mph /  1.9 km/h   31 % 0 in /  0.0 mm
22:02 89.1 °F /  31.7 °C 54.5 °F /  12.5 °C 29.9 in /  1012.8 hPa Calm     31 % 0 in /  0.0 mm
22:05 76.6 °F /  24.8 °C 59.7 °F /  15.4 °C 29.9 in /  1012.8 hPa NNE 1 mph /  1.6 km/h 3 mph /  4.8 km/h 56 % 0 in /  0.0 mm
22:07 88.7 °F /  31.5 °C 54.1 °F /  12.3 °C 29.9 in /  1012.8 hPa Calm     31 % 0 in /  0.0 mm
22:12 88.5 °F /  31.4 °C 54.9 °F /  12.7 °C 29.9 in /  1012.8 hPa Calm     32 % 0 in /  0.0 mm
22:15 76.5 °F /  24.7 °C 61.2 °F /  16.2 °C 29.9 in /  1012.8 hPa NNE 1 mph /  1.6 km/h 2 mph /  3.2 km/h 59 % 0 in /  0.0 mm
22:17 88.2 °F /  31.2 °C 54.7 °F /  12.6 °C 29.9 in /  1012.8 hPa NNW 1.2 mph /  1.9 km/h 1.4 mph /  2.3 km/h 32 % 0 in /  0.0 mm
22:22 88 °F /  31.1 °C 54.3 °F /  12.4 °C 29.9 in /  1012.8 hPa NNW 1.2 mph /  1.9 km/h   32 % 0 in /  0.0 mm
22:25 76.1 °F /  24.5 °C 60.3 °F /  15.7 °C 29.9 in /  1012.8 hPa NE 2 mph /  3.2 km/h 2 mph /  3.2 km/h 58 % 0 in /  0.0 mm
22:27 87.8 °F /  31.0 °C 54.3 °F /  12.4 °C 29.9 in /  1012.8 hPa Calm     32 % 0 in /  0.0 mm
22:32 87.6 °F /  30.9 °C 55 °F /  12.8 °C 29.9 in /  1012.8 hPa Calm     33 % 0 in /  0.0 mm
22:35 76.1 °F /  24.5 °C 60.6 °F /  15.9 °C 29.9 in /  1012.8 hPa NNE 2 mph /  3.2 km/h 2 mph /  3.2 km/h 59 % 0 in /  0.0 mm
22:37 87.3 °F /  30.7 °C 54.7 °F /  12.6 °C 29.9 in /  1012.8 hPa NNE 0.9 mph /  1.4 km/h   33 % 0 in /  0.0 mm
22:42 87.1 °F /  30.6 °C 54.5 °F /  12.5 °C 29.9 in /  1012.8 hPa NNE 1.4 mph /  2.3 km/h 1.4 mph /  2.3 km/h 33 % 0 in /  0.0 mm
22:45 75.7 °F /  24.3 °C 61 °F /  16.1 °C 29.9 in /  1012.8 hPa Calm   2 mph /  3.2 km/h 60 % 0 in /  0.0 mm
22:47 86.7 °F /  30.4 °C 54.1 °F /  12.3 °C 29.9 in /  1012.8 hPa NNE 1.2 mph /  1.9 km/h   33 % 0 in /  0.0 mm
22:52 86.5 °F /  30.3 °C 54.9 °F /  12.7 °C 29.9 in /  1012.8 hPa NNE 1.2 mph /  1.9 km/h   34 % 0 in /  0.0 mm
22:55 75.6 °F /  24.2 °C 61.2 °F /  16.2 °C 29.9 in /  1012.8 hPa NE 1 mph /  1.6 km/h 2 mph /  3.2 km/h 61 % 0 in /  0.0 mm
22:57 86.4 °F /  30.2 °C 54.7 °F /  12.6 °C 29.9 in /  1012.8 hPa NNE 1.2 mph /  1.9 km/h   34 % 0 in /  0.0 mm
23:02 86.2 °F /  30.1 °C 54.5 °F /  12.5 °C 29.9 in /  1012.8 hPa Calm     34 % 0 in /  0.0 mm
23:05 75.4 °F /  24.1 °C 61 °F /  16.1 °C 29.9 in /  1012.8 hPa NE 2 mph /  3.2 km/h 2 mph /  3.2 km/h 61 % 0 in /  0.0 mm
23:07 86 °F /  30.0 °C 54.3 °F /  12.4 °C 29.9 in /  1012.8 hPa Calm     34 % 0 in /  0.0 mm
23:12 86 °F /  30.0 °C 54.3 °F /  12.4 °C 29.9 in /  1012.8 hPa Calm     34 % 0 in /  0.0 mm
23:15 75.2 °F /  24.0 °C 61.3 °F /  16.3 °C 29.9 in /  1012.8 hPa Calm   2 mph /  3.2 km/h 62 % 0 in /  0.0 mm
23:17 85.6 °F /  29.8 °C 54.9 °F /  12.7 °C 29.9 in /  1012.8 hPa Calm     35 % 0 in /  0.0 mm
23:22 85.5 °F /  29.7 °C 54.7 °F /  12.6 °C 29.9 in /  1012.8 hPa Calm     35 % 0 in /  0.0 mm
23:25 75 °F /  23.9 °C 61.5 °F /  16.4 °C 29.9 in /  1013.8 hPa Calm     63 % 0 in /  0.0 mm
23:27 85.3 °F /  29.6 °C 54.5 °F /  12.5 °C 29.9 in /  1012.8 hPa Calm     35 % 0 in /  0.0 mm
23:32 85.3 °F /  29.6 °C 54.5 °F /  12.5 °C 29.9 in /  1012.8 hPa Calm     35 % 0 in /  0.0 mm
23:35 74.7 °F /  23.7 °C 61.7 °F /  16.5 °C 29.9 in /  1013.8 hPa Calm   1 mph /  1.6 km/h 64 % 0 in /  0.0 mm
23:37 85.1 °F /  29.5 °C 54.3 °F /  12.4 °C 29.9 in /  1012.8 hPa Calm     35 % 0 in /  0.0 mm
23:42 85.1 °F /  29.5 °C 54.3 °F /  12.4 °C 29.9 in /  1012.8 hPa Calm     35 % 0 in /  0.0 mm
23:45 74.3 °F /  23.5 °C 61.3 °F /  16.3 °C 29.9 in /  1013.8 hPa Calm     64 % 0 in /  0.0 mm
23:47 85.1 °F /  29.5 °C 54.3 °F /  12.4 °C 29.9 in /  1012.8 hPa Calm     35 % 0 in /  0.0 mm
23:52 84.9 °F /  29.4 °C 54.1 °F /  12.3 °C 29.9 in /  1012.8 hPa Calm     35 % 0 in /  0.0 mm
23:55 74.1 °F /  23.4 °C 61.2 °F /  16.2 °C 29.9 in /  1013.8 hPa Calm     64 % 0 in /  0.0 mm
23:57 84.7 °F /  29.3 °C 54.1 °F /  12.3 °C 29.9 in /  1012.8 hPa Calm     35 % 0 in /  0.0 mm
Meteo Sesrovires
Elogis d' Weather Underground - 3.75 mb

Guio original per  Jim McMurry - jmcmurry@mwt.net Adaptat per a la plantilla per  Wim van der Kuil - Leuven-Template.eu

Trobareu la nostra informacio del temps tambe a:

Weather Underground

AWEKAS